METAR Reports From Nearby Airports

 

KLUD - Decatur, Texas, USA
Distance from Wildwood: ESE 5mi, 8km
Updated: Dec 07, 2022 7:40pm
Mist, Overcast
Mist, Overcast
 Wind from ENE
Wind: ENE 9 mph , 15 km/h
Temperature: 57°F , 14°C
Dew Point: 55°F , 13°C
Humidity: 94%
Barometer: 30.16 inHg , 1021.3 hPa
Summary: Mist
Clouds: Overcast
Visibility: 1 3/4 miles , 2.8 km
Cloud details: Overcast 500 ft
2022/12/08 01:40 KLUD 080140Z AUTO 07008KT 1 3/4SM BR OVC005 14/13 A3016 RMK AO2 T01380133
KXBP - Bridgeport, Texas, USA
Distance from Wildwood: WSW 11mi, 18km
Updated: Dec 07, 2022 7:35pm
Overcast
Overcast
 Wind from calm
Wind: Calm
Temperature: 61°F , 16°C
Dew Point: 55°F , 13°C
Humidity: 83%
Barometer: 30.18 inHg , 1022 hPa
Clouds: Overcast
Visibility: 10 miles , 16 km
Cloud details: Overcast 700 ft
2022/12/08 01:35 KXBP 080135Z AUTO 00000KT 10SM OVC007 16/13 A3018 RMK AO2 T01550134
 
K0F2 - Bowie, Texas, USA
Distance from Wildwood: NNW 24mi, 39km
Updated: Dec 07, 2022 7:35pm
Light rain, Overcast
Light rain, Overcast
 Wind from NNE
Wind: NNE 5 mph , 7 km/h
Temperature: 55°F , 13°C
Dew Point: 50°F , 10°C
Humidity: 82%
Barometer: 30.18 inHg , 1022 hPa
Summary: Light Rain
Clouds: Overcast
Visibility: 7 miles , 11 km
Cloud details: Overcast 900 ft
2022/12/08 01:35 K0F2 080135Z AUTO 02004KT 7SM -RA OVC009 13/10 A3018 RMK AO2 T01280104
KDTO - Denton, Texas, USA
Distance from Wildwood: E 27mi, 44km
Updated: Dec 07, 2022 7:08pm
Mist, Overcast
Mist, Overcast
 Wind from NNE
Wind: NNE 6 mph , 9 km/h
Temperature: 57°F , 14°C
Dew Point: 57°F , 14°C
Humidity: 100%
Barometer: 30.17 inHg , 1021.7 hPa
Summary: Mist
Clouds: Overcast
Visibility: 6 miles , 10 km
Cloud details: Overcast 400 ft
2022/12/08 01:08 KDTO 080108Z 02005KT 6SM BR OVC004 14/14 A3017 RMK AO2 T01440139
 
KAFW - Ft Worth/Allianc, Texas, USA
Distance from Wildwood: SE 29mi, 46km
Updated: Dec 07, 2022 6:53pm
Mist, Overcast
Mist, Overcast
 Wind from NE
Wind: NE 9 mph , 15 km/h
Temperature: 59°F , 15°C
Dew Point: 59°F , 15°C
Humidity: 100%
Barometer: 30.15 inHg , 1021 hPa
Summary: Mist
Clouds: Overcast
Visibility: 1 1/2 miles , 2.4 km
Cloud details: Overcast 200 ft
2022/12/08 00:53 KAFW 080053Z 04008KT 1 1/2SM BR OVC002 15/15 A3015 RMK AO2 SFC VIS 3 SLP207 T01500150
KFTW - Fort Worth, Texas, USA
Distance from Wildwood: SSE 34mi, 55km
Updated: Dec 07, 2022 6:53pm
Mist, Overcast
Mist, Overcast
 Wind from NNE
Wind: NNE 5 mph , 7 km/h
Temperature: 61°F , 16°C
Dew Point: 61°F , 16°C
Humidity: 100%
Barometer: 30.14 inHg , 1020.7 hPa
Summary: Mist
Clouds: Overcast
Visibility: 4 miles , 6 km
Cloud details: Overcast 200 ft
2022/12/08 00:53 KFTW 080053Z 02004KT 4SM BR OVC002 16/16 A3014 RMK AO2 SLP203 T01610161
 
KNFW - Fort Worth Nas, Texas, USA
Distance from Wildwood: SSE 36mi, 58km
Updated: Dec 07, 2022 6:59pm
Mist, Overcast
Mist, Overcast
 Wind from NE
Wind: NE 5 mph , 7 km/h
Temperature: 61°F , 16°C
Dew Point: 61°F , 16°C
Humidity: 100%
Barometer: 30.15 inHg , 1021 hPa
Summary: Mist
Clouds: Overcast
Visibility: 6 miles , 10 km
Cloud details: Overcast 400 ft
2022/12/08 00:59 KNFW 080059Z 04004KT 6SM BR OVC004 16/16 A3015 RMK AO2 T01560156 CHINO S VISNO S $
KGLE - Gainesville, Texas, USA
Distance from Wildwood: NE 38mi, 61km
Updated: Dec 07, 2022 7:35pm
Mist, Overcast
Mist, Overcast
 Wind from NE
Wind: NE 3 mph , 6 km/h
Temperature: 55°F , 13°C
Dew Point: 55°F , 13°C
Humidity: 100%
Barometer: 30.19 inHg , 1022.4 hPa
Summary: Mist
Clouds: Overcast
Visibility: 3 miles , 5 km
Cloud details: Overcast 400 ft
2022/12/08 01:35 KGLE 080135Z AUTO 04003KT 3SM BR OVC004 13/13 A3019 RMK AO2 T01250125
 
KMWL - Mineral Wells, Texas, USA
Distance from Wildwood: SW 41mi, 65km
Updated: Dec 07, 2022 6:53pm
Light rain, Mist, Overcast
Light rain, Mist, Overcast
 Wind from ENE
Wind: ENE 9 mph , 15 km/h
Temperature: 63°F , 17°C
Dew Point: 63°F , 17°C
Humidity: 100%
Barometer: 30.13 inHg , 1020.3 hPa
Summary: Light rain, Mist
Clouds: Overcast
Visibility: 3 miles , 5 km
Cloud details: Partly Cloudy 2900 ft
Mostly Cloudy 3700 ft
Overcast 6000 ft
2022/12/08 00:53 KMWL 080053Z AUTO 06008KT 3SM -RA BR SCT029 BKN037 OVC060 17/17 A3013 RMK AO2 SLP196 P0011 T01670167
KDFW - Dallas/Ft Worth, Texas, USA
Distance from Wildwood: ESE 45mi, 73km
Updated: Dec 07, 2022 7:43pm
Mist, Overcast
Mist, Overcast
 Wind from N
Wind: N 8 mph , 13 km/h
Temperature: 59°F , 15°C
Dew Point: 59°F , 15°C
Humidity: 100%
Barometer: 30.14 inHg , 1020.7 hPa
Summary: Mist
Clouds: Overcast
Visibility: 1/8 mile , 0.2 km
Cloud details: Overcast 100 ft
2022/12/08 01:43 KDFW 080143Z 01007KT 1/8SM R17C/2800V4000FT BR OVC001 15/15 A3014 RMK AO2 SFC VIS 1 T01500150